Time;durP1;ratioP1;P1;durP2;ratioP2;P2;SDS_P1;SDS_P2;PMS_P1;PMS_P2;Temp;Humidity;BMP_temperature;BMP_pressure;BME280_temperature;BME280_humidity;BME280_pressure;Samples;Min_cycle;Max_cycle;Signal;HPM_P1;HPM_P2
2022/02/19 00:00:53;;;;;;;5.05;1.17;;;6.00;70.30;;;;;;5067132;28;20033;-82
2022/02/19 00:03:19;;;;;;;6.97;1.30;;;6.00;70.70;;;;;;5065875;28;20111;-83
2022/02/19 00:05:44;;;;;;;11.43;1.85;;;5.80;71.80;;;;;;5064666;28;20110;-82
2022/02/19 00:08:11;;;;;;;7.88;1.27;;;5.90;71.70;;;;;;5066367;28;20111;-82
2022/02/19 00:10:37;;;;;;;4.25;1.55;;;5.90;72.00;;;;;;5068616;28;20030;-83
2022/02/19 00:13:02;;;;;;;6.75;1.25;;;5.90;71.30;;;;;;5071087;28;20029;-83
2022/02/19 00:15:29;;;;;;;5.72;1.30;;;5.90;71.60;;;;;;5067972;28;20020;-82
2022/02/19 00:17:54;;;;;;;7.70;1.60;;;5.80;72.40;;;;;;5055980;28;20032;-82
2022/02/19 00:20:20;;;;;;;5.40;1.63;;;5.60;74.90;;;;;;5060663;28;20458;-82
2022/02/19 00:22:45;;;;;;;4.40;1.35;;;5.50;74.80;;;;;;5070986;28;20047;-83
2022/02/19 00:25:11;;;;;;;6.50;1.40;;;5.40;75.90;;;;;;5063918;28;20078;-82
2022/02/19 00:27:37;;;;;;;8.70;1.73;;;5.30;77.00;;;;;;5069118;28;20050;-82
2022/02/19 00:30:04;;;;;;;7.45;1.45;;;5.20;77.70;;;;;;5069161;28;20067;-82
2022/02/19 00:32:29;;;;;;;6.13;1.55;;;5.10;77.60;;;;;;5063763;28;20079;-83
2022/02/19 00:34:55;;;;;;;5.68;1.55;;;5.20;76.90;;;;;;5068170;28;20028;-82
2022/02/19 00:37:20;;;;;;;9.80;1.35;;;5.30;76.90;;;;;;5070281;28;20523;-82
2022/02/19 00:39:46;;;;;;;8.00;1.27;;;5.10;77.30;;;;;;5068574;28;20031;-82
2022/02/19 00:42:11;;;;;;;10.68;1.77;;;5.10;77.90;;;;;;5064555;28;20033;-82
2022/02/19 00:44:37;;;;;;;10.98;1.48;;;5.10;78.20;;;;;;5070305;28;20036;-82
2022/02/19 00:47:03;;;;;;;9.35;1.48;;;5.10;77.40;;;;;;5059169;28;21166;-82
2022/02/19 00:49:28;;;;;;;3.60;1.00;;;5.10;78.20;;;;;;5066810;28;20029;-82
2022/02/19 00:51:54;;;;;;;8.93;1.55;;;5.10;77.80;;;;;;5068661;28;20077;-82
2022/02/19 00:54:20;;;;;;;5.88;1.77;;;5.30;75.50;;;;;;5067682;28;20029;-82
2022/02/19 00:56:46;;;;;;;8.35;1.38;;;5.40;74.60;;;;;;5055162;28;20374;-82
2022/02/19 00:59:11;;;;;;;7.28;1.50;;;5.30;75.70;;;;;;5069816;28;20098;-82
2022/02/19 01:01:37;;;;;;;9.13;1.75;;;5.40;75.00;;;;;;5067534;28;20039;-83
2022/02/19 01:04:03;;;;;;;5.95;1.20;;;5.40;75.40;;;;;;5069322;28;20048;-82
2022/02/19 01:06:29;;;;;;;9.95;1.50;;;5.40;75.00;;;;;;5070521;28;20120;-82
2022/02/19 01:08:55;;;;;;;3.50;1.30;;;5.40;75.00;;;;;;5063129;28;20025;-83
2022/02/19 01:11:21;;;;;;;5.50;1.23;;;5.30;75.80;;;;;;5082150;28;20028;-82
2022/02/19 01:13:47;;;;;;;7.38;1.77;;;5.40;75.40;;;;;;5068450;28;20067;-82
2022/02/19 01:16:13;;;;;;;4.47;1.50;;;5.30;76.00;;;;;;5062532;28;20941;-82
2022/02/19 01:18:39;;;;;;;10.77;2.33;;;5.20;77.90;;;;;;5059231;28;20357;-82
2022/02/19 01:21:04;;;;;;;5.07;1.45;;;5.10;79.00;;;;;;5069549;28;20031;-82
2022/02/19 01:23:30;;;;;;;13.50;1.73;;;4.90;79.50;;;;;;5066866;28;20555;-82
2022/02/19 01:25:55;;;;;;;8.02;1.75;;;4.80;80.40;;;;;;5067373;28;20158;-82
2022/02/19 01:28:21;;;;;;;5.30;1.23;;;4.70;81.20;;;;;;5068676;28;20028;-82
2022/02/19 01:30:47;;;;;;;12.00;1.83;;;4.80;80.60;;;;;;5066939;28;20032;-82
2022/02/19 01:33:12;;;;;;;6.95;1.67;;;4.80;80.20;;;;;;5065930;28;20496;-82
2022/02/19 01:35:38;;;;;;;6.68;1.30;;;4.80;80.60;;;;;;5068139;28;20024;-82
2022/02/19 01:38:03;;;;;;;8.40;1.90;;;4.80;80.90;;;;;;5068890;28;20059;-82
2022/02/19 01:40:30;;;;;;;7.60;1.58;;;4.60;82.50;;;;;;5069405;28;20064;-82
2022/02/19 01:42:55;;;;;;;10.40;2.17;;;4.50;83.20;;;;;;5069305;28;20032;-82
2022/02/19 01:45:21;;;;;;;4.30;1.58;;;4.40;84.60;;;;;;5067932;28;20509;-82
2022/02/19 01:47:46;;;;;;;7.25;1.40;;;4.30;85.00;;;;;;5069565;28;20024;-82
2022/02/19 01:50:13;;;;;;;8.18;1.77;;;4.20;86.20;;;;;;5072383;28;20031;-82
2022/02/19 01:52:41;;;;;;;9.50;1.30;;;4.00;87.80;;;;;;5072542;28;20028;-82
2022/02/19 01:55:07;;;;;;;6.28;1.35;;;4.00;88.40;;;;;;5070568;28;20025;-81
2022/02/19 01:57:32;;;;;;;0.93;0.50;;;3.70;89.60;;;;;;5067112;28;20036;-81
2022/02/19 01:59:58;;;;;;;3.78;1.42;;;3.60;92.00;;;;;;5070170;28;20032;-82
2022/02/19 02:02:24;;;;;;;0.10;0.10;;;3.40;93.60;;;;;;5069777;28;20107;-82
2022/02/19 02:04:50;;;;;;;0.10;0.10;;;3.40;93.80;;;;;;5066668;28;20154;-81
2022/02/19 02:07:16;;;;;;;4.85;1.40;;;3.30;93.80;;;;;;5071190;28;20068;-82
2022/02/19 02:09:43;;;;;;;2.58;1.30;;;3.30;93.10;;;;;;5065981;28;20111;-82
2022/02/19 02:12:08;;;;;;;1.95;0.77;;;3.20;93.20;;;;;;5072033;28;20073;-82
2022/02/19 02:14:39;;;;;;;2.55;1.38;;;3.20;93.50;;;;;;5067855;28;20116;-82
2022/02/19 02:17:05;;;;;;;6.55;1.17;;;3.30;93.50;;;;;;5070982;28;20431;-81
2022/02/19 02:19:31;;;;;;;5.38;1.33;;;3.50;92.50;;;;;;5072289;28;20037;-81
2022/02/19 02:21:56;;;;;;;4.95;1.40;;;3.40;92.40;;;;;;5076824;28;20323;-82
2022/02/19 02:24:22;;;;;;;6.25;1.23;;;3.40;92.20;;;;;;5068645;28;20094;-82
2022/02/19 02:26:48;;;;;;;4.53;1.25;;;3.40;92.50;;;;;;5072474;28;20554;-82
2022/02/19 02:29:15;;;;;;;4.53;1.40;;;3.40;92.70;;;;;;5069165;28;20024;-82
2022/02/19 02:31:40;;;;;;;2.53;1.20;;;3.40;92.20;;;;;;5071063;28;20108;-82
2022/02/19 02:34:06;;;;;;;4.10;1.30;;;3.50;92.20;;;;;;5067989;28;20112;-82
2022/02/19 02:36:31;;;;;;;2.58;0.98;;;3.40;92.40;;;;;;5067343;28;20033;-82
2022/02/19 02:38:58;;;;;;;6.78;1.23;;;3.40;92.50;;;;;;5065783;28;20086;-82
2022/02/19 02:41:25;;;;;;;5.50;1.30;;;3.50;92.80;;;;;;5069059;28;20020;-82
2022/02/19 02:43:50;;;;;;;6.50;1.70;;;3.50;92.50;;;;;;5069053;28;20028;-82
2022/02/19 02:46:16;;;;;;;4.25;1.05;;;3.50;92.40;;;;;;5068688;28;20162;-82
2022/02/19 02:48:41;;;;;;;4.95;1.33;;;3.60;92.00;;;;;;5081087;28;20028;-82
2022/02/19 02:51:07;;;;;;;5.15;1.60;;;3.60;92.10;;;;;;5069559;28;20112;-82
2022/02/19 02:53:33;;;;;;;1.85;0.50;;;3.50;92.40;;;;;;5069938;28;20058;-82
2022/02/19 02:55:59;;;;;;;0.10;0.10;;;3.40;93.00;;;;;;5066710;28;20028;-82
2022/02/19 02:58:25;;;;;;;0.10;0.10;;;3.40;93.30;;;;;;5069836;28;20093;-82
2022/02/19 03:00:51;;;;;;;0.10;0.10;;;3.40;93.30;;;;;;5068342;28;20036;-82
2022/02/19 03:03:17;;;;;;;0.10;0.10;;;3.40;93.50;;;;;;5070306;28;20389;-83
2022/02/19 03:05:42;;;;;;;0.13;0.13;;;3.30;93.50;;;;;;5066563;28;20043;-82
2022/02/19 03:08:08;;;;;;;0.10;0.10;;;3.30;93.40;;;;;;5067686;28;20032;-82
2022/02/19 03:10:33;;;;;;;0.10;0.10;;;3.40;93.30;;;;;;5070702;28;20017;-82
2022/02/19 03:12:59;;;;;;;0.10;0.10;;;3.30;93.60;;;;;;5070007;28;20396;-82
2022/02/19 03:15:25;;;;;;;0.30;0.30;;;3.30;93.60;;;;;;5065678;28;20039;-82
2022/02/19 03:17:50;;;;;;;0.10;0.10;;;3.40;93.40;;;;;;5069801;28;20035;-82
2022/02/19 03:20:18;;;;;;;0.10;0.10;;;3.50;92.90;;;;;;5058497;28;20465;-82
2022/02/19 03:22:44;;;;;;;1.17;1.08;;;3.60;93.00;;;;;;5069083;28;20111;-82
2022/02/19 03:25:14;;;;;;;0.10;0.10;;;3.60;92.70;;;;;;5068301;28;20024;-82
2022/02/19 03:27:40;;;;;;;0.20;0.20;;;3.70;92.30;;;;;;5065754;28;20035;-82
2022/02/19 03:30:07;;;;;;;0.20;0.20;;;3.70;92.20;;;;;;5068538;28;20361;-82
2022/02/19 03:32:33;;;;;;;0.10;0.10;;;3.70;92.20;;;;;;5070970;28;20028;-82
2022/02/19 03:34:59;;;;;;;7.28;1.40;;;3.70;92.10;;;;;;5069393;28;20074;-82
2022/02/19 03:37:25;;;;;;;5.38;0.90;;;3.80;91.80;;;;;;5072303;28;20021;-82
2022/02/19 03:39:50;;;;;;;7.22;1.65;;;3.80;91.70;;;;;;5078526;28;20048;-82
2022/02/19 03:42:16;;;;;;;5.22;1.42;;;3.80;91.70;;;;;;5069271;28;20393;-82
2022/02/19 03:44:42;;;;;;;8.88;1.60;;;3.80;91.50;;;;;;5060059;28;20566;-82
2022/02/19 03:47:08;;;;;;;6.68;1.38;;;3.90;91.50;;;;;;5061445;28;20029;-82
2022/02/19 03:49:33;;;;;;;5.10;1.45;;;3.90;91.20;;;;;;5066116;28;20504;-82
2022/02/19 03:51:59;;;;;;;11.75;2.05;;;3.90;91.40;;;;;;5070336;28;20031;-82
2022/02/19 03:54:24;;;;;;;12.35;1.85;;;3.90;91.10;;;;;;5067035;28;20362;-82
2022/02/19 03:56:50;;;;;;;9.70;1.88;;;3.90;91.00;;;;;;5065529;28;20028;-82
2022/02/19 03:59:16;;;;;;;14.85;2.03;;;4.00;90.50;;;;;;5086132;28;20032;-82
2022/02/19 04:01:43;;;;;;;10.15;1.42;;;4.10;90.10;;;;;;5067913;28;20024;-82
2022/02/19 04:04:08;;;;;;;6.05;1.55;;;4.10;89.80;;;;;;5058399;28;20049;-82
2022/02/19 04:06:34;;;;;;;8.77;1.75;;;4.10;89.50;;;;;;5064171;28;20047;-82
2022/02/19 04:08:59;;;;;;;4.18;0.93;;;4.10;90.00;;;;;;5073710;28;20020;-82
2022/02/19 04:11:25;;;;;;;9.90;1.33;;;4.20;89.20;;;;;;5067486;28;20025;-82
2022/02/19 04:13:51;;;;;;;19.70;2.47;;;4.10;90.10;;;;;;5078376;28;20028;-82
2022/02/19 04:16:17;;;;;;;6.72;1.45;;;4.00;90.60;;;;;;5064590;28;20013;-82
2022/02/19 04:18:42;;;;;;;2.75;0.88;;;4.00;90.60;;;;;;5070455;28;20075;-82
2022/02/19 04:21:08;;;;;;;2.65;1.05;;;3.90;90.50;;;;;;5068221;28;20028;-81
2022/02/19 04:23:34;;;;;;;3.30;0.80;;;3.90;90.70;;;;;;5067835;28;20033;-81
2022/02/19 04:26:00;;;;;;;4.80;1.00;;;3.80;90.00;;;;;;5064400;28;20035;-81
2022/02/19 04:28:26;;;;;;;7.40;1.13;;;3.70;91.20;;;;;;5068171;28;20476;-81
2022/02/19 04:30:53;;;;;;;4.75;1.42;;;3.60;91.10;;;;;;5066202;28;20516;-82
2022/02/19 04:33:19;;;;;;;7.40;1.30;;;3.60;91.50;;;;;;5069185;28;20039;-82
2022/02/19 04:35:47;;;;;;;2.75;0.80;;;3.60;92.10;;;;;;5069913;28;20029;-82
2022/02/19 04:38:13;;;;;;;3.20;0.77;;;3.50;92.30;;;;;;5063452;28;20029;-82
2022/02/19 04:40:39;;;;;;;3.63;0.95;;;3.30;92.90;;;;;;5066325;28;20073;-81
2022/02/19 04:43:05;;;;;;;10.77;0.95;;;3.20;92.50;;;;;;5068822;28;20024;-81
2022/02/19 04:45:30;;;;;;;1.00;0.45;;;3.20;91.00;;;;;;5064780;28;20029;-82
2022/02/19 04:47:56;;;;;;;2.38;0.85;;;3.10;91.00;;;;;;5068429;28;20370;-82
2022/02/19 04:50:22;;;;;;;2.28;0.60;;;3.10;90.30;;;;;;5068250;28;20017;-82
2022/02/19 04:52:48;;;;;;;2.83;0.90;;;3.00;90.30;;;;;;5066451;28;20028;-82
2022/02/19 04:55:14;;;;;;;0.98;0.40;;;3.00;90.80;;;;;;5074938;28;20029;-82
2022/02/19 04:57:43;;;;;;;1.05;0.50;;;3.00;91.20;;;;;;5082616;28;20024;-82
2022/02/19 05:00:13;;;;;;;1.83;0.43;;;3.00;91.30;;;;;;5067309;28;20097;-82
2022/02/19 05:02:39;;;;;;;3.17;0.55;;;3.00;91.30;;;;;;5067796;28;20028;-82
2022/02/19 05:05:05;;;;;;;1.55;0.52;;;3.00;91.40;;;;;;5066022;28;20048;-82
2022/02/19 05:07:30;;;;;;;3.60;0.65;;;3.00;91.30;;;;;;5065931;28;20082;-82
2022/02/19 05:09:56;;;;;;;2.63;0.70;;;3.00;91.60;;;;;;5068444;28;20111;-82
2022/02/19 05:12:21;;;;;;;1.65;0.50;;;3.00;91.70;;;;;;5068986;28;20024;-82
2022/02/19 05:14:47;;;;;;;1.17;0.40;;;3.10;91.80;;;;;;5064333;28;20029;-81
2022/02/19 05:17:12;;;;;;;0.25;0.20;;;3.10;91.50;;;;;;5065280;28;20032;-82
2022/02/19 05:19:37;;;;;;;0.20;0.20;;;3.10;91.70;;;;;;5069222;28;20130;-81
2022/02/19 05:22:03;;;;;;;0.90;0.35;;;3.10;92.10;;;;;;5071223;28;20043;-81
2022/02/19 05:24:29;;;;;;;2.00;0.60;;;3.00;92.20;;;;;;5073301;28;20033;-81
2022/02/19 05:26:55;;;;;;;2.63;0.60;;;3.00;92.40;;;;;;5080168;28;20036;-81
2022/02/19 05:29:20;;;;;;;3.35;0.70;;;2.90;92.20;;;;;;5070527;28;20082;-81
2022/02/19 05:31:46;;;;;;;0.82;0.35;;;2.80;92.60;;;;;;5065434;28;20029;-81
2022/02/19 05:34:11;;;;;;;2.20;0.55;;;2.80;92.60;;;;;;5084552;28;20452;-81
2022/02/19 05:36:37;;;;;;;1.33;0.30;;;2.80;92.70;;;;;;5072249;28;20111;-81
2022/02/19 05:39:04;;;;;;;1.55;0.38;;;2.70;92.70;;;;;;5072848;28;20524;-81
2022/02/19 05:41:30;;;;;;;1.02;0.40;;;2.70;92.70;;;;;;5072875;28;20024;-81
2022/02/19 05:43:55;;;;;;;1.55;0.52;;;2.70;92.90;;;;;;5073507;28;20032;-81
2022/02/19 05:46:21;;;;;;;2.00;0.50;;;2.80;92.80;;;;;;5068679;28;20035;-81
2022/02/19 05:48:47;;;;;;;1.25;0.30;;;2.80;92.70;;;;;;5072350;28;20042;-81
2022/02/19 05:51:12;;;;;;;3.15;0.60;;;2.80;92.90;;;;;;5070636;28;20020;-81
2022/02/19 05:53:38;;;;;;;2.13;0.30;;;2.80;93.00;;;;;;5070846;28;20032;-81
2022/02/19 05:56:03;;;;;;;4.15;0.77;;;2.80;92.80;;;;;;5065051;28;20025;-81
2022/02/19 05:58:29;;;;;;;6.45;0.70;;;2.90;92.90;;;;;;5063119;28;20035;-81
2022/02/19 06:00:55;;;;;;;1.55;0.50;;;2.80;93.00;;;;;;5066023;28;20032;-81
2022/02/19 06:03:21;;;;;;;6.35;0.70;;;2.80;92.70;;;;;;5070367;28;20086;-81
2022/02/19 06:05:46;;;;;;;5.15;0.70;;;2.90;92.80;;;;;;5070320;28;20408;-81
2022/02/19 06:08:12;;;;;;;6.97;0.80;;;2.90;92.90;;;;;;5070995;28;20485;-81
2022/02/19 06:10:37;;;;;;;1.50;0.55;;;2.90;92.80;;;;;;5070385;28;20088;-80
2022/02/19 06:13:03;;;;;;;5.25;0.73;;;3.00;92.60;;;;;;5072192;28;20024;-80
2022/02/19 06:15:29;;;;;;;1.60;0.50;;;3.10;91.50;;;;;;5069305;28;20482;-80
2022/02/19 06:17:54;;;;;;;1.67;0.40;;;3.10;91.40;;;;;;5071902;28;20025;-80
2022/02/19 06:20:20;;;;;;;2.40;0.70;;;3.10;91.20;;;;;;5069382;28;20047;-80
2022/02/19 06:22:45;;;;;;;1.05;0.43;;;3.10;90.60;;;;;;5071881;28;20041;-80
2022/02/19 06:25:11;;;;;;;1.60;0.32;;;3.30;89.50;;;;;;5065727;28;20036;-80
2022/02/19 06:27:44;;;;;;;0.40;0.40;;;3.30;89.10;;;;;;5070812;28;20035;-80
2022/02/19 06:30:13;;;;;;;3.55;0.77;;;3.20;89.40;;;;;;5061483;28;20119;-80
2022/02/19 06:32:39;;;;;;;2.42;0.60;;;3.20;89.70;;;;;;5072249;28;20495;-80
2022/02/19 06:35:05;;;;;;;2.10;0.60;;;3.10;90.10;;;;;;5062569;28;20025;-80
2022/02/19 06:37:40;;;;;;;2.63;0.55;;;3.10;90.30;;;;;;5065428;28;20043;-80
2022/02/19 06:40:07;;;;;;;1.65;0.50;;;3.00;90.80;;;;;;5070231;28;20121;-80
2022/02/19 06:42:33;;;;;;;1.55;0.30;;;3.00;91.20;;;;;;5071289;28;20032;-80
2022/02/19 06:44:58;;;;;;;2.63;0.60;;;3.00;91.30;;;;;;5069643;28;20039;-80
2022/02/19 06:47:24;;;;;;;0.25;0.25;;;3.00;91.40;;;;;;5069501;28;20111;-80
2022/02/19 06:49:49;;;;;;;2.53;0.40;;;3.10;91.10;;;;;;5069950;28;20028;-80
2022/02/19 06:52:15;;;;;;;2.15;0.80;;;3.10;90.90;;;;;;5070303;28;20032;-80
2022/02/19 06:54:40;;;;;;;1.52;0.50;;;3.10;91.10;;;;;;5065696;28;20071;-80
2022/02/19 06:57:10;;;;;;;1.85;0.35;;;3.10;91.30;;;;;;5058666;28;20037;-81
2022/02/19 06:59:35;;;;;;;2.88;0.88;;;3.20;91.00;;;;;;5067195;28;20029;-81
2022/02/19 07:02:01;;;;;;;0.80;0.30;;;3.20;91.10;;;;;;5068381;28;20393;-82
2022/02/19 07:04:26;;;;;;;3.22;0.50;;;3.30;90.70;;;;;;5063109;28;20511;-81
2022/02/19 07:06:52;;;;;;;2.47;0.40;;;3.30;90.70;;;;;;5068161;28;20086;-81
2022/02/19 07:09:17;;;;;;;0.47;0.20;;;3.20;90.80;;;;;;5070317;28;20518;-81
2022/02/19 07:11:43;;;;;;;4.35;0.80;;;3.30;90.50;;;;;;5064161;28;20043;-81
2022/02/19 07:14:08;;;;;;;0.82;0.32;;;3.30;90.70;;;;;;5054780;28;20368;-81
2022/02/19 07:16:34;;;;;;;1.00;0.30;;;3.40;90.60;;;;;;5069035;28;20025;-81
2022/02/19 07:18:59;;;;;;;0.57;0.20;;;3.30;90.70;;;;;;5070575;28;20086;-81
2022/02/19 07:21:25;;;;;;;2.85;0.57;;;3.40;90.70;;;;;;5071475;28;20024;-81
2022/02/19 07:23:51;;;;;;;1.05;0.50;;;3.40;91.00;;;;;;5068414;28;20078;-81
2022/02/19 07:26:18;;;;;;;2.30;0.50;;;3.40;90.90;;;;;;5069388;28;20086;-81
2022/02/19 07:28:43;;;;;;;2.28;0.40;;;3.40;91.00;;;;;;5085819;28;20055;-81
2022/02/19 07:31:09;;;;;;;2.10;0.45;;;3.50;90.80;;;;;;5068778;28;20421;-81
2022/02/19 07:33:34;;;;;;;1.92;0.40;;;3.50;90.90;;;;;;5074637;28;20468;-81
2022/02/19 07:36:00;;;;;;;2.83;0.65;;;3.40;91.10;;;;;;5069914;28;20033;-81
2022/02/19 07:38:25;;;;;;;3.05;0.65;;;3.40;91.30;;;;;;5068932;28;20095;-81
2022/02/19 07:40:51;;;;;;;2.83;0.88;;;3.40;91.30;;;;;;5068793;28;20396;-81
2022/02/19 07:43:16;;;;;;;2.33;0.77;;;3.30;91.50;;;;;;5068242;28;20021;-81
2022/02/19 07:45:42;;;;;;;1.38;0.70;;;3.20;91.70;;;;;;5061153;28;20046;-81
2022/02/19 07:48:09;;;;;;;0.85;0.50;;;3.10;91.80;;;;;;5067710;28;20024;-81
2022/02/19 07:58:46;;;;;;;0.98;0.40;;;3.10;91.90;;;;;;5067592;28;20074;-81
2022/02/19 08:01:12;;;;;;;2.30;0.50;;;3.10;91.90;;;;;;5067478;28;20029;-81
2022/02/19 08:03:38;;;;;;;0.80;0.63;;;3.10;92.10;;;;;;5068131;28;20020;-81
2022/02/19 08:06:04;;;;;;;5.30;0.95;;;3.10;92.00;;;;;;5085440;28;20036;-81
2022/02/19 08:08:30;;;;;;;1.65;0.85;;;3.10;92.30;;;;;;5066132;28;20025;-80
2022/02/19 08:10:56;;;;;;;0.90;0.70;;;3.10;92.50;;;;;;5068379;28;20046;-80
2022/02/19 08:13:23;;;;;;;0.50;0.50;;;3.10;92.60;;;;;;5064917;28;20029;-80
2022/02/19 08:15:50;;;;;;;2.78;0.45;;;3.00;92.30;;;;;;5062393;28;20139;-81
2022/02/19 08:18:16;;;;;;;0.60;0.60;;;3.00;92.20;;;;;;5069290;28;20036;-81
2022/02/19 08:20:43;;;;;;;1.02;0.47;;;3.00;91.90;;;;;;5064432;28;20028;-81
2022/02/19 08:23:09;;;;;;;1.52;0.75;;;3.10;91.90;;;;;;5065618;28;20028;-81
2022/02/19 08:25:36;;;;;;;3.10;0.60;;;3.10;91.60;;;;;;5062177;28;20028;-81
2022/02/19 08:28:05;;;;;;;0.60;0.50;;;3.10;91.30;;;;;;5068279;28;20532;-81
2022/02/19 08:30:34;;;;;;;3.00;0.63;;;3.10;91.30;;;;;;5060346;28;20029;-81
2022/02/19 08:32:59;;;;;;;1.08;0.47;;;3.00;91.50;;;;;;5070236;28;20020;-81
2022/02/19 08:35:25;;;;;;;0.50;0.22;;;2.90;91.80;;;;;;5068497;28;20074;-81
2022/02/19 08:37:50;;;;;;;1.80;0.60;;;2.80;91.90;;;;;;5067320;28;20036;-81
2022/02/19 08:40:16;;;;;;;1.65;0.63;;;2.80;92.20;;;;;;5067860;28;20362;-81
2022/02/19 08:42:44;;;;;;;0.93;0.60;;;2.80;92.40;;;;;;5064715;28;20028;-81
2022/02/19 08:45:11;;;;;;;1.08;0.70;;;2.70;92.20;;;;;;5066229;28;20494;-81
2022/02/19 08:47:37;;;;;;;0.93;0.50;;;2.70;92.60;;;;;;5065116;28;20500;-81
2022/02/19 08:50:05;;;;;;;1.52;0.60;;;2.60;92.70;;;;;;5063625;28;20033;-81
2022/02/19 08:52:31;;;;;;;1.55;0.65;;;2.40;92.70;;;;;;5064810;28;20029;-81
2022/02/19 08:54:57;;;;;;;1.52;0.60;;;2.30;93.10;;;;;;5083574;28;21257;-81
2022/02/19 08:57:23;;;;;;;0.50;0.40;;;2.10;93.40;;;;;;5072313;28;20130;-82
2022/02/19 08:59:48;;;;;;;1.95;0.80;;;2.00;93.60;;;;;;5072207;28;20481;-81
2022/02/19 09:02:14;;;;;;;0.57;0.50;;;2.00;93.90;;;;;;5073423;28;20426;-81
2022/02/19 09:04:40;;;;;;;1.65;0.75;;;1.80;94.00;;;;;;5069025;28;20480;-81
2022/02/19 09:07:05;;;;;;;3.80;1.08;;;1.60;94.10;;;;;;5068984;28;20045;-80
2022/02/19 09:09:33;;;;;;;2.72;0.90;;;1.40;94.30;;;;;;5070709;28;20017;-80
2022/02/19 09:11:59;;;;;;;2.30;0.82;;;1.30;94.50;;;;;;5071381;28;20051;-81
2022/02/19 09:14:25;;;;;;;2.45;0.95;;;1.20;94.80;;;;;;5069898;28;20396;-80
2022/02/19 09:16:50;;;;;;;1.83;0.70;;;1.10;94.90;;;;;;5066594;28;21890;-80
2022/02/19 09:19:16;;;;;;;3.75;0.90;;;1.10;95.00;;;;;;5068480;28;20119;-81
2022/02/19 09:21:43;;;;;;;2.33;0.85;;;1.00;95.20;;;;;;5069449;28;20032;-81
2022/02/19 09:24:09;;;;;;;3.17;1.02;;;1.00;95.40;;;;;;5067202;28;20451;-81
2022/02/19 09:26:35;;;;;;;6.03;1.48;;;1.10;95.60;;;;;;5068307;28;20112;-81
2022/02/19 09:29:00;;;;;;;2.00;0.80;;;1.20;95.70;;;;;;5068124;28;20551;-81
2022/02/19 09:31:26;;;;;;;2.88;1.08;;;1.30;95.60;;;;;;5069016;28;20031;-80
2022/02/19 09:33:51;;;;;;;3.28;1.00;;;1.40;95.70;;;;;;5069387;28;20029;-80
2022/02/19 09:36:17;;;;;;;7.28;1.20;;;1.40;95.70;;;;;;5074346;28;20090;-80
2022/02/19 09:38:43;;;;;;;7.15;1.58;;;1.60;95.70;;;;;;5055051;28;20440;-80
2022/02/19 09:41:12;;;;;;;4.88;1.30;;;1.80;95.70;;;;;;5056060;28;20061;-80
2022/02/19 09:43:38;;;;;;;1.98;1.10;;;2.10;95.70;;;;;;5067394;28;20033;-80
2022/02/19 09:46:05;;;;;;;2.85;1.10;;;2.20;95.40;;;;;;5071458;28;20040;-80
2022/02/19 09:48:32;;;;;;;5.72;1.38;;;2.40;95.30;;;;;;5067729;28;20109;-81
2022/02/19 09:50:59;;;;;;;2.08;1.15;;;2.70;95.10;;;;;;5069342;28;20028;-80
2022/02/19 09:53:25;;;;;;;9.82;1.73;;;2.70;94.90;;;;;;5077116;28;20112;-81
2022/02/19 09:55:51;;;;;;;4.40;1.60;;;2.80;94.60;;;;;;5069393;28;20032;-80
2022/02/19 09:58:17;;;;;;;9.45;2.40;;;2.90;94.30;;;;;;5071609;28;20024;-80
2022/02/19 10:00:45;;;;;;;14.93;3.35;;;3.00;94.30;;;;;;5068792;28;20105;-80
2022/02/19 10:03:17;;;;;;;12.55;3.28;;;3.30;94.40;;;;;;5062025;28;20123;-80
2022/02/19 10:05:43;;;;;;;7.38;3.15;;;3.40;94.00;;;;;;5068741;28;20139;-80
2022/02/19 10:08:09;;;;;;;13.43;3.30;;;3.60;93.80;;;;;;5066656;28;20032;-80
2022/02/19 10:10:38;;;;;;;11.63;3.22;;;3.90;93.20;;;;;;5064420;28;20024;-80
2022/02/19 10:13:04;;;;;;;13.95;3.95;;;4.00;92.60;;;;;;5070028;28;20025;-80
2022/02/19 10:15:55;;;;;;;13.85;3.17;;;4.30;92.40;;;;;;5068742;28;20039;-80
2022/02/19 10:18:22;;;;;;;7.63;2.95;;;4.40;91.70;;;;;;5068907;28;20107;-80
2022/02/19 10:20:49;;;;;;;11.40;2.55;;;4.40;90.80;;;;;;5061247;28;20048;-80
2022/02/19 10:23:15;;;;;;;10.85;2.58;;;4.40;90.40;;;;;;5067631;28;20078;-80
2022/02/19 10:25:40;;;;;;;8.65;2.13;;;4.40;90.60;;;;;;5068099;28;20436;-80
2022/02/19 10:28:10;;;;;;;6.95;1.45;;;4.50;90.70;;;;;;5066577;28;20593;-80
2022/02/19 10:30:36;;;;;;;6.88;1.85;;;4.60;89.10;;;;;;5083209;28;20025;-80
2022/02/19 10:33:06;;;;;;;9.38;2.20;;;4.70;89.40;;;;;;5073374;28;20206;-80
2022/02/19 10:35:40;;;;;;;12.55;2.78;;;4.70;88.50;;;;;;5071873;28;20020;-82
2022/02/19 10:38:06;;;;;;;10.73;2.40;;;4.80;89.30;;;;;;5070002;28;20103;-81
2022/02/19 10:40:43;;;;;;;7.30;2.40;;;4.50;89.00;;;;;;5074810;28;20079;-81
2022/02/19 10:43:12;;;;;;;4.07;1.00;;;4.10;90.50;;;;;;5068937;28;20029;-82
2022/02/19 10:45:52;;;;;;;3.92;1.05;;;3.80;91.00;;;;;;5064092;28;20028;-81
2022/02/19 10:48:27;;;;;;;4.87;1.83;;;3.60;91.40;;;;;;5070987;28;20063;-82
2022/02/19 10:51:13;;;;;;;5.45;1.30;;;3.40;92.00;;;;;;5056998;28;20769;-84
2022/02/19 10:53:40;;;;;;;13.55;1.75;;;3.60;92.70;;;;;;5063480;28;20112;-82
2022/02/19 10:56:11;;;;;;;8.13;1.25;;;3.70;92.10;;;;;;5061316;28;20043;-83
2022/02/19 10:58:38;;;;;;;7.07;0.80;;;3.70;92.20;;;;;;5069707;28;20031;-83
2022/02/19 11:01:19;;;;;;;0.10;0.10;;;3.60;92.70;;;;;;5067660;28;20028;-83
2022/02/19 11:03:45;;;;;;;0.10;0.10;;;3.50;93.00;;;;;;5069658;28;20392;-83
2022/02/19 11:06:11;;;;;;;0.10;0.10;;;3.60;93.30;;;;;;5071110;28;20036;-82
2022/02/19 11:08:36;;;;;;;0.20;0.20;;;3.60;93.00;;;;;;5069840;28;20021;-82
2022/02/19 11:11:02;;;;;;;0.10;0.10;;;3.60;93.10;;;;;;5059743;28;20041;-83
2022/02/19 11:13:28;;;;;;;0.10;0.10;;;3.90;93.00;;;;;;5070726;28;20112;-82
2022/02/19 11:15:55;;;;;;;0.10;0.10;;;4.20;92.40;;;;;;5065729;28;20098;-82
2022/02/19 11:18:21;;;;;;;0.10;0.10;;;4.60;91.50;;;;;;5064481;28;20057;-82
2022/02/19 11:20:51;;;;;;;0.10;0.10;;;4.80;91.00;;;;;;5057336;28;20032;-82
2022/02/19 11:23:17;;;;;;;0.10;0.10;;;4.80;89.80;;;;;;5070134;28;20107;-83
2022/02/19 11:25:44;;;;;;;0.47;0.47;;;5.00;89.80;;;;;;5064855;28;20032;-83
2022/02/19 11:28:12;;;;;;;4.20;0.85;;;5.00;89.20;;;;;;5062669;28;20666;-82
2022/02/19 11:30:54;;;;;;;0.35;0.35;;;4.90;89.10;;;;;;5057143;28;20024;-82
2022/02/19 11:33:21;;;;;;;0.17;0.17;;;4.80;89.20;;;;;;5067216;28;20069;-83
2022/02/19 11:35:47;;;;;;;0.43;0.43;;;4.60;88.20;;;;;;5067947;28;20028;-82
2022/02/19 11:38:35;;;;;;;0.10;0.10;;;5.00;88.10;;;;;;5071597;28;20392;-82
2022/02/19 11:41:01;;;;;;;1.00;1.00;;;5.40;87.70;;;;;;5066859;28;20033;-83
2022/02/19 11:43:41;;;;;;;0.10;0.10;;;5.20;87.30;;;;;;5059888;28;20328;-82
2022/02/19 11:46:16;;;;;;;0.10;0.10;;;5.10;87.80;;;;;;5067907;28;20381;-82
2022/02/19 11:48:47;;;;;;;0.10;0.10;;;5.00;88.50;;;;;;5062515;28;20435;-82
2022/02/19 11:51:22;;;;;;;;;;;4.90;89.20;;;;;;5064272;28;20073;-83
2022/02/19 11:54:03;;;;;;;0.10;0.10;;;4.80;88.40;;;;;;5067531;28;19912;-83
2022/02/19 11:56:32;;;;;;;0.10;0.10;;;4.90;88.30;;;;;;5075820;28;20455;-83
2022/02/19 11:59:01;;;;;;;0.13;0.13;;;5.20;88.00;;;;;;5066708;28;20024;-83
2022/02/19 12:01:28;;;;;;;0.10;0.10;;;5.40;87.10;;;;;;5082445;28;20021;-82
2022/02/19 12:04:16;;;;;;;0.10;0.10;;;5.50;85.80;;;;;;5065266;28;20102;-82
2022/02/19 12:07:10;;;;;;;0.10;0.10;;;5.70;86.40;;;;;;5069683;28;20033;-83
2022/02/19 12:10:04;;;;;;;1.00;0.17;;;5.70;85.70;;;;;;5069252;28;20021;-82
2022/02/19 12:13:03;;;;;;;0.10;0.10;;;6.00;85.30;;;;;;5057266;28;20423;-82
2022/02/19 12:15:29;;;;;;;0.20;0.20;;;5.90;83.20;;;;;;5027946;28;20427;-82
2022/02/19 12:17:54;;;;;;;0.10;0.10;;;5.60;83.10;;;;;;5070457;28;20078;-82
2022/02/19 12:20:28;;;;;;;0.10;0.10;;;5.50;82.70;;;;;;5067494;28;20028;-83
2022/02/19 12:22:58;;;;;;;0.55;0.55;;;5.40;83.60;;;;;;5079101;28;20040;-83
2022/02/19 12:25:24;;;;;;;0.10;0.10;;;5.40;84.00;;;;;;5068050;28;20024;-82
2022/02/19 12:28:18;;;;;;;0.10;0.10;;;5.10;83.90;;;;;;5066090;28;20035;-83
2022/02/19 12:30:45;;;;;;;0.30;0.30;;;5.10;84.90;;;;;;5074398;28;20502;-82
2022/02/19 12:33:11;;;;;;;11.65;1.73;;;5.60;84.90;;;;;;5083609;28;20036;-82
2022/02/19 12:35:40;;;;;;;9.98;1.83;;;5.40;84.40;;;;;;5068475;28;20029;-82
2022/02/19 12:38:06;;;;;;;6.88;1.63;;;5.30;83.80;;;;;;5068036;28;20113;-82
2022/02/19 12:40:32;;;;;;;2.72;1.05;;;5.10;85.20;;;;;;5068421;28;20028;-82
2022/02/19 12:42:58;;;;;;;4.28;1.20;;;4.90;85.80;;;;;;5056907;28;20028;-82
2022/02/19 12:45:24;;;;;;;8.95;2.03;;;4.60;85.60;;;;;;5063602;28;20028;-82
2022/02/19 12:47:50;;;;;;;6.80;1.73;;;4.40;85.60;;;;;;5064790;28;20048;-84
2022/02/19 12:50:18;;;;;;;3.35;1.13;;;4.20;84.90;;;;;;5064483;28;20116;-84
2022/02/19 12:52:49;;;;;;;9.30;1.75;;;4.60;85.00;;;;;;5075793;28;20021;-84
2022/02/19 12:55:17;;;;;;;4.13;1.10;;;5.20;84.60;;;;;;5073975;28;20033;-84
2022/02/19 12:57:50;;;;;;;7.22;1.55;;;5.50;82.50;;;;;;5067344;28;20388;-86
2022/02/19 13:00:17;;;;;;;7.30;1.30;;;6.00;81.20;;;;;;5064034;28;20476;-83
2022/02/19 13:02:45;;;;;;;11.55;2.20;;;6.20;79.90;;;;;;5069560;28;20025;-84